Time;durP1;ratioP1;P1;durP2;ratioP2;P2;SDS_P1;SDS_P2;PMS_P1;PMS_P2;Temp;Humidity;BMP_temperature;BMP_pressure;BME280_temperature;BME280_humidity;BME280_pressure;Samples;Min_cycle;Max_cycle;Signal;HPM_P1;HPM_P2
2021/11/12 00:04:00;;;;;;;62.93;36.93;;;;;;;4.60;68.04;97113.78;5094708;28;20436;-67
2021/11/12 00:14:34;;;;;;;56.70;35.63;;;;;;;4.20;69.45;97097.81;5087744;28;20492;-66
2021/11/12 00:17:00;;;;;;;60.90;34.60;;;;;;;4.28;69.13;97092.91;5093478;28;20919;-66
2021/11/12 00:19:26;;;;;;;71.30;37.63;;;;;;;4.42;69.40;97090.06;5077409;28;20416;-66
2021/11/12 00:21:51;;;;;;;58.50;37.50;;;;;;;4.78;68.26;97099.53;5087114;28;20202;-65
2021/11/12 00:24:17;;;;;;;58.80;34.17;;;;;;;4.91;67.62;97087.25;5094498;28;20189;-66
2021/11/12 00:26:42;;;;;;;66.23;39.80;;;;;;;4.70;68.87;97092.34;5094029;28;20170;-67
2021/11/12 00:29:10;;;;;;;60.97;36.50;;;;;;;4.81;68.51;97084.53;5091497;28;20216;-67
2021/11/12 00:37:32;;;;;;;58.90;35.93;;;;;;;5.10;66.86;97098.78;5091999;28;20245;-66
2021/11/12 00:39:49;;;;;;;58.20;37.60;;;;;;;5.15;67.00;97091.47;5093419;28;20432;-65
2021/11/12 00:42:21;;;;;;;60.40;37.53;;;;;;;5.21;66.42;97096.16;5083826;28;20509;-67
2021/11/12 00:44:51;;;;;;;61.00;35.70;;;;;;;5.22;66.48;97096.06;5083882;28;20411;-65
2021/11/12 00:47:25;;;;;;;55.90;35.60;;;;;;;5.27;66.44;97103.50;5084131;28;20976;-65
2021/11/12 00:50:12;;;;;;;66.20;36.90;;;;;;;5.31;66.48;97097.09;5083522;28;20441;-65
2021/11/12 00:55:25;;;;;;;55.37;34.33;;;;;;;5.37;66.22;97100.97;5076645;28;20519;-67
2021/11/12 00:57:52;;;;;;;52.43;33.70;;;;;;;5.36;66.10;97094.13;5092796;28;20416;-68
2021/11/12 01:00:19;;;;;;;57.57;34.67;;;;;;;5.36;66.10;97100.16;5093334;28;20448;-66
2021/11/12 01:02:45;;;;;;;54.17;34.60;;;;;;;5.33;65.54;97103.00;5088939;28;20463;-66
2021/11/12 01:05:12;;;;;;;60.10;36.00;;;;;;;5.14;66.61;97100.22;5088016;28;20960;-65
2021/11/12 01:07:38;;;;;;;55.40;34.13;;;;;;;5.14;66.24;97093.22;5092920;28;20178;-65
2021/11/12 01:10:07;;;;;;;55.90;32.10;;;;;;;5.21;66.13;97083.19;5092537;28;20442;-66
2021/11/12 01:12:35;;;;;;;51.77;33.13;;;;;;;5.22;65.66;97084.84;5091278;28;20447;-66
2021/11/12 01:15:03;;;;;;;49.10;32.00;;;;;;;5.24;65.94;97080.34;5084659;28;20425;-65
2021/11/12 01:17:29;;;;;;;46.83;30.40;;;;;;;5.26;65.41;97082.81;5092540;28;20446;-66
2021/11/12 01:19:54;;;;;;;47.87;30.13;;;;;;;5.26;65.57;97085.41;5090322;28;20534;-68
2021/11/12 01:22:21;;;;;;;43.60;29.50;;;;;;;5.24;64.80;97080.34;5078210;28;20615;-65
2021/11/12 01:24:47;;;;;;;45.93;30.63;;;;;;;5.26;64.88;97075.03;5084855;28;20276;-66
2021/11/12 01:27:13;;;;;;;44.70;28.80;;;;;;;5.20;64.58;97078.94;5083634;28;20515;-67
2021/11/12 01:29:38;;;;;;;46.30;29.00;;;;;;;5.20;65.23;97074.56;5097684;28;20447;-66
2021/11/12 01:32:24;;;;;;;48.50;30.37;;;;;;;5.10;65.37;97067.63;5101125;28;20626;-67
2021/11/12 01:34:53;;;;;;;47.30;29.10;;;;;;;5.11;65.10;97066.66;5087636;28;20178;-66
2021/11/12 01:37:21;;;;;;;43.83;29.30;;;;;;;5.15;64.52;97062.91;5101755;28;20428;-67
2021/11/12 01:39:54;;;;;;;49.07;29.67;;;;;;;5.13;64.53;97057.81;5100234;28;20443;-66
2021/11/12 01:42:21;;;;;;;45.53;28.60;;;;;;;5.07;65.29;97053.09;5080492;28;20449;-66
2021/11/12 01:44:52;;;;;;;48.47;29.90;;;;;;;5.05;64.79;97052.41;5102071;28;20424;-68
2021/11/12 01:47:30;;;;;;;49.00;30.67;;;;;;;4.99;65.28;97045.06;5111683;28;20403;-68
2021/11/12 01:50:07;;;;;;;50.03;31.83;;;;;;;4.79;65.36;97046.66;5109641;28;20439;-67
2021/11/12 01:52:56;;;;;;;49.77;29.87;;;;;;;4.94;65.92;97052.41;5096918;28;20419;-66
2021/11/12 01:58:49;;;;;;;50.43;31.00;;;;;;;5.04;64.85;97042.94;5060240;28;20491;-67
2021/11/12 02:01:13;;;;;;;49.60;29.40;;;;;;;5.03;64.91;97049.94;5058293;28;20467;-66
2021/11/12 02:03:38;;;;;;;55.23;30.33;;;;;;;5.07;65.11;97043.53;5063169;28;20980;-68
2021/11/12 02:06:04;;;;;;;47.43;30.57;;;;;;;5.02;64.25;97044.84;5050724;28;20198;-65
2021/11/12 02:08:30;;;;;;;53.23;30.83;;;;;;;5.06;64.65;97043.66;5056772;28;20214;-67
2021/11/12 02:10:55;;;;;;;46.53;29.70;;;;;;;5.02;64.32;97039.66;5067320;28;20206;-66
2021/11/12 02:13:24;;;;;;;50.43;30.97;;;;;;;5.04;64.29;97040.34;5060895;28;20182;-66
2021/11/12 02:15:50;;;;;;;47.70;28.90;;;;;;;5.04;64.25;97038.56;5068343;28;20217;-68
2021/11/12 02:18:25;;;;;;;51.23;30.60;;;;;;;5.05;64.69;97036.81;5048588;28;20421;-66
2021/11/12 02:21:00;;;;;;;48.67;30.13;;;;;;;4.98;64.32;97041.66;5054987;28;20301;-68
2021/11/12 02:23:34;;;;;;;55.50;31.90;;;;;;;4.78;64.91;97030.25;5056489;28;20876;-67
2021/11/12 02:26:00;;;;;;;50.60;30.50;;;;;;;4.64;65.37;97031.34;5050732;28;20414;-68
2021/11/12 02:28:27;;;;;;;52.47;30.10;;;;;;;4.71;65.64;97026.50;5063306;28;20483;-66
2021/11/12 02:30:53;;;;;;;46.10;29.70;;;;;;;4.74;65.53;97028.81;5048023;28;20207;-68
2021/11/12 02:33:26;;;;;;;58.60;33.80;;;;;;;4.70;65.20;97019.66;5065628;28;20427;-68
2021/11/12 02:36:22;;;;;;;48.20;30.70;;;;;;;4.84;64.75;97031.53;5088667;28;20435;-68
2021/11/12 02:38:51;;;;;;;52.73;31.27;;;;;;;4.89;64.68;97019.84;5056292;28;20860;-68
2021/11/12 02:41:18;;;;;;;45.97;29.57;;;;;;;4.95;64.95;97022.91;5043306;28;20510;-67
2021/11/12 02:43:45;;;;;;;48.07;30.07;;;;;;;4.98;64.42;97017.47;5068010;28;20432;-67
2021/11/12 02:46:16;;;;;;;46.03;29.77;;;;;;;4.95;64.17;97023.72;5068546;28;20951;-66
2021/11/12 02:48:42;;;;;;;48.90;27.97;;;;;;;4.96;64.25;97014.97;5068096;28;20428;-67
2021/11/12 02:51:12;;;;;;;49.07;30.50;;;;;;;4.91;64.72;97011.94;5068501;28;20502;-68
2021/11/12 02:53:39;;;;;;;46.33;30.03;;;;;;;4.92;64.76;97010.97;5072181;28;20412;-67
2021/11/12 02:56:11;;;;;;;54.67;32.37;;;;;;;4.87;65.00;97011.34;5071969;28;21118;-68
2021/11/12 02:58:38;;;;;;;53.10;31.03;;;;;;;4.90;65.17;97015.47;5070993;28;20428;-67
2021/11/12 03:01:05;;;;;;;50.90;31.23;;;;;;;4.96;64.29;97009.78;5054997;28;20783;-66
2021/11/12 03:03:30;;;;;;;45.07;28.27;;;;;;;4.96;64.09;96998.59;5070846;28;20467;-68
2021/11/12 03:05:57;;;;;;;42.63;28.40;;;;;;;4.97;64.55;97002.84;5069684;28;20864;-66
2021/11/12 03:08:22;;;;;;;44.90;29.70;;;;;;;4.92;64.76;97005.78;5071605;28;20333;-68
2021/11/12 03:10:52;;;;;;;39.27;26.77;;;;;;;4.95;64.64;97005.53;5063242;28;21119;-67
2021/11/12 03:13:17;;;;;;;45.10;26.23;;;;;;;4.93;64.73;97002.22;5071793;28;20687;-68
2021/11/12 03:15:43;;;;;;;39.87;26.97;;;;;;;4.88;64.25;97002.59;5087720;28;20510;-69
2021/11/12 03:18:10;;;;;;;42.23;25.80;;;;;;;4.88;64.39;96999.19;5092503;28;20710;-67
2021/11/12 03:20:38;;;;;;;38.80;26.13;;;;;;;4.89;63.92;97003.44;5092963;28;20204;-67
2021/11/12 03:23:13;;;;;;;35.93;25.03;;;;;;;4.80;64.48;97006.75;5086060;28;20483;-68
2021/11/12 04:03:52;;;;;;;39.47;26.27;;;;;;;4.54;64.02;96992.28;5092199;28;20483;-68
2021/11/12 04:17:25;;;;;;;36.57;25.00;;;;;;;4.45;64.27;96985.22;5093370;28;20499;-69
2021/11/12 04:49:13;;;;;;;35.70;22.73;;;;;;;4.21;64.57;96983.56;5053229;28;20448;-69
2021/11/12 05:03:07;;;;;;;32.10;22.87;;;;;;;4.21;64.13;96985.31;5061832;28;20301;-68
2021/11/12 05:44:15;;;;;;;37.10;24.60;;;;;;;3.86;64.22;96978.47;5075593;28;20412;-67
2021/11/12 05:57:05;;;;;;;43.00;27.13;;;;;;;3.83;65.07;96969.16;5070265;28;20961;-67
2021/11/12 05:59:30;;;;;;;43.97;28.60;;;;;;;3.76;65.28;96973.13;5071744;28;20452;-69
2021/11/12 06:01:57;;;;;;;42.83;26.70;;;;;;;3.76;65.38;96957.59;5071334;28;20532;-70
2021/11/12 06:04:23;;;;;;;54.37;29.30;;;;;;;3.75;65.41;96961.97;5072401;28;20560;-69
2021/11/12 06:06:49;;;;;;;41.27;26.60;;;;;;;3.83;65.27;96958.78;5062281;28;20727;-71
2021/11/12 06:09:15;;;;;;;42.63;26.97;;;;;;;3.92;64.86;96957.25;5083202;28;20831;-69
2021/11/12 06:11:42;;;;;;;42.10;27.00;;;;;;;3.97;65.21;96960.31;5071270;28;20475;-68
2021/11/12 06:14:08;;;;;;;42.83;26.93;;;;;;;4.02;64.65;96958.22;5071975;28;20423;-67
2021/11/12 06:16:34;;;;;;;43.40;28.27;;;;;;;4.06;65.16;96957.03;5071345;28;20798;-69
2021/11/12 06:19:00;;;;;;;43.37;28.23;;;;;;;4.07;64.43;96963.88;5071547;28;20417;-66
2021/11/12 06:21:26;;;;;;;39.03;26.97;;;;;;;4.10;64.26;96953.25;5072273;28;20982;-67
2021/11/12 06:23:52;;;;;;;45.23;28.30;;;;;;;4.10;64.80;96961.03;5088911;28;20423;-68
2021/11/12 06:26:18;;;;;;;38.90;26.10;;;;;;;4.13;64.56;96966.00;5086737;28;20727;-69
2021/11/12 06:28:43;;;;;;;37.10;24.33;;;;;;;4.17;64.70;96957.97;5079047;28;20183;-68
2021/11/12 06:31:09;;;;;;;41.43;26.70;;;;;;;4.21;63.81;96959.38;5067448;28;20444;-67
2021/11/12 06:33:35;;;;;;;35.67;25.10;;;;;;;4.22;64.40;96958.44;5076241;28;20547;-68
2021/11/12 06:36:01;;;;;;;40.43;27.00;;;;;;;4.14;64.07;96959.03;5082795;28;20206;-67
2021/11/12 06:38:29;;;;;;;38.90;25.77;;;;;;;4.12;64.46;96969.53;5090139;28;20178;-70
2021/11/12 06:40:56;;;;;;;41.70;25.67;;;;;;;4.05;64.71;96970.94;5105410;28;20455;-70
2021/11/12 06:51:26;;;;;;;60.13;30.67;;;;;;;4.12;64.49;96974.72;5090802;28;20858;-68
2021/11/12 06:53:55;;;;;;;58.77;31.60;;;;;;;4.14;64.53;96977.19;5085768;28;20420;-68
2021/11/12 06:56:22;;;;;;;53.43;31.00;;;;;;;4.21;64.55;96968.00;5095927;28;20260;-67
2021/11/12 06:58:47;;;;;;;50.60;31.30;;;;;;;4.24;64.79;96962.56;5085935;28;20435;-68
2021/11/12 07:01:13;;;;;;;62.40;31.70;;;;;;;4.19;65.00;96963.88;5093493;28;20431;-67
2021/11/12 07:03:39;;;;;;;64.83;31.30;;;;;;;4.29;65.48;96972.59;5094423;28;20206;-66
2021/11/12 07:06:05;;;;;;;65.40;33.10;;;;;;;4.38;64.82;96971.88;5072793;28;20743;-67
2021/11/12 07:08:31;;;;;;;52.80;30.30;;;;;;;4.33;64.94;96971.41;5080746;28;20523;-68
2021/11/12 07:10:57;;;;;;;87.80;31.03;;;;;;;4.38;65.28;96974.50;5088468;28;20515;-69
2021/11/12 07:13:28;;;;;;;59.60;30.47;;;;;;;4.45;65.58;96975.66;5066022;28;20177;-69
2021/11/12 07:15:55;;;;;;;52.90;28.80;;;;;;;4.53;65.46;96969.88;5062731;28;20259;-65
2021/11/12 07:18:22;;;;;;;58.37;32.33;;;;;;;4.62;66.46;96965.72;5068019;28;20898;-66
2021/11/12 07:20:49;;;;;;;63.40;31.90;;;;;;;4.67;66.36;96957.56;5077376;28;20465;-66
2021/11/12 07:23:16;;;;;;;68.60;33.93;;;;;;;4.73;66.04;96952.72;5077795;28;20456;-67
2021/11/12 07:25:42;;;;;;;59.80;30.00;;;;;;;4.87;66.84;96948.19;5093794;28;20503;-67
2021/11/12 07:28:08;;;;;;;66.57;33.33;;;;;;;4.99;66.83;96957.59;5093420;28;20499;-65
2021/11/12 07:30:38;;;;;;;68.43;34.67;;;;;;;5.03;66.23;96961.63;5072463;28;20486;-66
2021/11/12 07:33:04;;;;;;;73.07;34.20;;;;;;;5.12;65.49;96962.63;5065944;28;20479;-69
2021/11/12 07:35:34;;;;;;;64.10;34.90;;;;;;;5.10;65.08;96964.53;5093536;28;20434;-69
2021/11/12 07:38:08;;;;;;;75.87;34.37;;;;;;;5.12;65.50;96956.63;5093205;28;20442;-69
2021/11/12 07:41:25;;;;;;;84.63;35.23;;;;;;;5.23;65.53;96965.16;5077182;28;20467;-68
2021/11/12 07:46:31;;;;;;;68.97;33.97;;;;;;;5.32;65.00;96963.59;5078713;28;20441;-66
2021/11/12 07:49:01;;;;;;;69.50;33.87;;;;;;;5.33;64.95;96959.25;5071996;28;20527;-64
2021/11/12 07:51:27;;;;;;;60.77;32.43;;;;;;;5.31;64.86;96959.34;5072423;28;20977;-66
2021/11/12 07:53:54;;;;;;;70.00;33.23;;;;;;;5.42;65.46;96952.47;5090592;28;20426;-66
2021/11/12 07:56:24;;;;;;;91.03;37.00;;;;;;;5.41;65.33;96951.63;5082734;28;20516;-67
2021/11/12 07:58:49;;;;;;;77.27;34.93;;;;;;;5.59;65.17;96944.09;5066775;28;20709;-67
2021/11/12 08:01:15;;;;;;;58.87;33.63;;;;;;;5.63;64.71;96949.84;5055737;28;20452;-67
2021/11/12 08:03:43;;;;;;;69.77;35.13;;;;;;;5.67;65.00;96941.66;5078972;28;20652;-68
2021/11/12 08:06:12;;;;;;;78.60;35.90;;;;;;;5.56;64.96;96935.72;5081405;28;20434;-67
2021/11/12 08:08:40;;;;;;;63.67;34.27;;;;;;;5.65;65.11;96943.59;5090283;28;20757;-69
2021/11/12 08:11:18;;;;;;;81.13;32.77;;;;;;;5.81;64.97;96937.09;5078797;28;20517;-67
2021/11/12 08:17:19;;;;;;;65.83;33.10;;;;;;;5.99;64.52;96926.91;5073885;28;20586;-66
2021/11/12 08:19:16;;;;;;;55.87;31.50;;;;;;;6.02;64.34;96921.47;5072636;28;20424;-67
2021/11/12 08:21:51;;;;;;;55.23;31.90;;;;;;;5.98;64.03;96915.69;5087334;28;20477;-68
2021/11/12 08:24:33;;;;;;;50.97;32.23;;;;;;;5.95;64.20;96921.16;5077034;28;20415;-67
2021/11/12 08:27:04;;;;;;;48.63;29.23;;;;;;;5.99;64.26;96919.97;5090958;28;20416;-68
2021/11/12 08:35:00;;;;;;;46.50;28.30;;;;;;;6.13;64.25;96910.16;5088928;28;20952;-65
2021/11/12 08:40:34;;;;;;;42.80;27.60;;;;;;;6.24;64.09;96914.44;5093562;28;20507;-68
2021/11/12 08:43:08;;;;;;;42.40;29.17;;;;;;;6.49;64.28;96907.13;5075396;28;20459;-66
2021/11/12 08:45:38;;;;;;;40.83;27.63;;;;;;;6.78;63.82;96908.94;5072499;28;20444;-65
2021/11/12 08:48:08;;;;;;;37.77;26.50;;;;;;;7.00;63.08;96908.66;5067609;28;20842;-68
2021/11/12 08:50:35;;;;;;;43.93;28.77;;;;;;;7.13;62.84;96913.63;5091915;28;20957;-66
2021/11/12 08:53:06;;;;;;;44.37;28.10;;;;;;;7.25;63.00;96900.44;5094142;28;20515;-65
2021/11/12 08:55:34;;;;;;;40.30;26.37;;;;;;;7.32;62.79;96901.53;5094757;28;20812;-66
2021/11/12 08:58:00;;;;;;;42.63;27.43;;;;;;;7.41;62.30;96899.88;5092611;28;20427;-65
2021/11/12 09:00:26;;;;;;;52.27;30.83;;;;;;;7.34;61.88;96895.22;5092486;28;20448;-67
2021/11/12 09:02:53;;;;;;;47.40;31.20;;;;;;;7.48;61.66;96888.75;5082466;28;20484;-67
2021/11/12 09:05:20;;;;;;;49.80;30.97;;;;;;;7.47;62.20;96889.69;5077146;28;20424;-68
2021/11/12 09:07:49;;;;;;;45.70;28.93;;;;;;;7.25;62.29;96901.25;5087269;28;20425;-65
2021/11/12 09:10:16;;;;;;;43.80;29.07;;;;;;;7.22;62.48;96907.56;5076663;28;20520;-67
2021/11/12 09:12:45;;;;;;;51.50;30.53;;;;;;;6.97;63.37;96892.50;5100361;28;20509;-65
2021/11/12 09:15:22;;;;;;;43.27;29.00;;;;;;;6.94;64.37;96897.97;5101210;28;20981;-70
2021/11/12 09:17:48;;;;;;;43.33;27.20;;;;;;;7.29;63.32;96899.22;5079378;28;20433;-65
2021/11/12 09:20:14;;;;;;;48.73;28.80;;;;;;;7.28;62.45;96906.19;5064837;28;20442;-66
2021/11/12 09:22:40;;;;;;;43.00;28.90;;;;;;;7.21;62.52;96892.09;5082888;28;20206;-66
2021/11/12 09:25:07;;;;;;;44.10;28.77;;;;;;;7.03;63.21;96899.78;5075090;28;20509;-67
2021/11/12 09:27:33;;;;;;;41.10;27.80;;;;;;;7.15;64.16;96903.88;5089831;28;20522;-66
2021/11/12 09:29:59;;;;;;;41.30;28.67;;;;;;;7.45;62.50;96901.25;5073091;28;20456;-66
2021/11/12 09:32:24;;;;;;;43.00;28.60;;;;;;;7.25;61.85;96892.63;5092671;28;20189;-66
2021/11/12 09:34:50;;;;;;;40.77;28.50;;;;;;;7.26;63.65;96896.88;5091100;28;20243;-67
2021/11/12 09:37:21;;;;;;;42.30;27.17;;;;;;;6.79;63.93;96898.41;5090086;28;20193;-65
2021/11/12 09:39:53;;;;;;;41.90;27.30;;;;;;;7.16;63.83;96897.72;5090780;28;20192;-65
2021/11/12 09:42:19;;;;;;;56.60;31.17;;;;;;;7.40;63.47;96891.25;5069282;28;20498;-65
2021/11/12 09:44:45;;;;;;;46.30;31.50;;;;;;;7.29;63.47;96896.59;5086668;28;20519;-69
2021/11/12 09:47:10;;;;;;;48.57;31.37;;;;;;;7.47;63.09;96894.91;5070659;28;20510;-66
2021/11/12 09:49:37;;;;;;;54.73;31.90;;;;;;;7.32;62.45;96898.91;5080517;28;20186;-66
2021/11/12 09:52:06;;;;;;;49.03;30.80;;;;;;;7.52;62.68;96899.72;5083019;28;20182;-68
2021/11/12 09:54:32;;;;;;;46.77;29.83;;;;;;;7.52;62.47;96890.13;5090428;28;20439;-67
2021/11/12 09:56:57;;;;;;;41.93;28.80;;;;;;;7.48;62.31;96890.53;5079017;28;20413;-67
2021/11/12 09:59:23;;;;;;;49.30;29.43;;;;;;;6.83;64.05;96886.72;5089712;28;20424;-63
2021/11/12 10:01:48;;;;;;;49.80;29.40;;;;;;;6.70;64.91;96891.38;5086506;28;20209;-67
2021/11/12 10:04:14;;;;;;;57.50;27.73;;;;;;;5.38;69.62;96895.53;5092999;28;20209;-64
2021/11/12 10:06:42;;;;;;;49.10;29.40;;;;;;;5.86;68.70;96892.50;5107333;28;20212;-67
2021/11/12 10:09:18;;;;;;;42.17;29.00;;;;;;;6.85;66.50;96879.59;5100540;28;20194;-66
2021/11/12 10:11:54;;;;;;;47.37;31.00;;;;;;;7.31;65.56;96873.84;5093641;28;20448;-66
2021/11/12 10:14:43;;;;;;;43.30;30.70;;;;;;;7.42;65.14;96860.63;5096025;28;20490;-64
2021/11/12 10:17:09;;;;;;;79.87;33.17;;;;;;;6.24;67.51;96865.81;5087613;28;20522;-65
2021/11/12 10:19:41;;;;;;;52.93;31.87;;;;;;;6.51;68.53;96861.78;5085096;28;20427;-65
2021/11/12 10:22:07;;;;;;;49.63;31.97;;;;;;;7.18;65.95;96856.66;5088026;28;20974;-67
2021/11/12 10:24:36;;;;;;;52.37;33.70;;;;;;;7.57;64.40;96852.34;5095892;28;20434;-66
2021/11/12 10:27:19;;;;;;;52.27;31.40;;;;;;;7.89;64.01;96848.53;5095481;28;20708;-65
2021/11/12 10:29:51;;;;;;;47.20;31.40;;;;;;;8.06;63.35;96847.78;5086335;28;20950;-68
2021/11/12 10:32:25;;;;;;;45.10;32.17;;;;;;;6.97;65.00;96843.00;5079229;28;20415;-65
2021/11/12 10:34:53;;;;;;;47.77;32.20;;;;;;;7.65;64.57;96845.44;5085282;28;20785;-66
2021/11/12 10:37:24;;;;;;;56.13;32.27;;;;;;;7.73;64.08;96842.13;5094484;28;20489;-67
2021/11/12 10:40:01;;;;;;;42.80;30.30;;;;;;;8.17;62.65;96838.09;5093584;28;20732;-67
2021/11/12 10:42:30;;;;;;;45.70;30.50;;;;;;;8.05;62.71;96834.84;5077737;28;20481;-68
2021/11/12 10:45:04;;;;;;;51.53;31.53;;;;;;;7.42;65.67;96834.56;5096067;28;20427;-67
2021/11/12 10:47:31;;;;;;;50.57;33.10;;;;;;;7.81;64.25;96844.84;5087191;28;20594;-67
2021/11/12 10:50:09;;;;;;;90.57;51.80;;;;;;;8.65;62.13;96844.00;5081658;28;20451;-66
2021/11/12 10:52:35;;;;;;;48.63;31.77;;;;;;;8.69;61.38;96848.78;5094290;28;20882;-66
2021/11/12 10:55:04;;;;;;;48.13;32.30;;;;;;;8.73;60.68;96839.66;5092057;28;20438;-66
2021/11/12 10:57:35;;;;;;;47.00;31.37;;;;;;;8.66;60.65;96841.25;5093042;28;20424;-68
2021/11/12 11:00:05;;;;;;;46.80;31.93;;;;;;;8.65;60.96;96837.00;5086260;28;20846;-67
2021/11/12 11:02:36;;;;;;;52.00;31.10;;;;;;;8.72;61.10;96817.13;5094769;28;20500;-67
2021/11/12 11:05:05;;;;;;;49.50;32.13;;;;;;;8.80;60.48;96805.13;5091141;28;20469;-65
2021/11/12 11:07:31;;;;;;;47.13;30.30;;;;;;;9.00;60.05;96793.50;5093916;28;20976;-66
2021/11/12 11:09:58;;;;;;;51.03;32.20;;;;;;;9.20;59.93;96793.28;5094149;28;20459;-68
2021/11/12 11:12:43;;;;;;;47.20;32.40;;;;;;;9.48;59.32;96793.13;5091151;28;20190;-67
2021/11/12 11:15:17;;;;;;;47.50;30.70;;;;;;;9.33;60.37;96792.91;5096148;28;20505;-66
2021/11/12 11:17:45;;;;;;;42.10;30.97;;;;;;;9.75;59.12;96781.66;5081685;28;20421;-66
2021/11/12 11:20:16;;;;;;;52.33;30.97;;;;;;;9.74;59.34;96780.03;5096822;28;20818;-66
2021/11/12 11:22:54;;;;;;;41.63;29.67;;;;;;;9.89;59.74;96772.38;5089515;28;20455;-68
2021/11/12 11:25:20;;;;;;;44.80;30.30;;;;;;;10.03;59.31;96775.38;5096495;28;20407;-66
2021/11/12 11:27:46;;;;;;;60.10;31.73;;;;;;;9.71;59.51;96774.28;5094753;28;21101;-66
2021/11/12 11:30:13;;;;;;;45.10;30.63;;;;;;;9.98;59.54;96768.81;5094802;28;20539;-67
2021/11/12 11:32:41;;;;;;;47.70;32.27;;;;;;;10.17;58.83;96761.66;5093554;28;20468;-66
2021/11/12 11:35:08;;;;;;;45.20;31.10;;;;;;;10.16;59.48;96762.66;5086874;28;20946;-67
2021/11/12 11:37:36;;;;;;;43.73;29.63;;;;;;;10.37;58.68;96759.59;5101813;28;20431;-67
2021/11/12 11:40:02;;;;;;;42.37;29.70;;;;;;;10.50;57.83;96764.38;5100396;28;20443;-66
2021/11/12 11:42:27;;;;;;;44.20;31.20;;;;;;;10.85;57.23;96757.16;5103944;28;20459;-64
2021/11/12 11:44:53;;;;;;;41.93;29.60;;;;;;;11.12;56.38;96763.03;5087313;28;20424;-66
2021/11/12 11:47:20;;;;;;;48.23;30.40;;;;;;;10.90;56.43;96757.50;5088780;28;20175;-66
2021/11/12 11:49:52;;;;;;;42.50;29.47;;;;;;;11.28;55.94;96761.38;5089274;28;20232;-66
2021/11/12 11:52:29;;;;;;;44.10;29.00;;;;;;;11.21;55.37;96750.72;5074258;28;20422;-67
2021/11/12 11:54:56;;;;;;;50.37;29.50;;;;;;;11.36;55.44;96749.06;5089651;28;20425;-65
2021/11/12 11:57:24;;;;;;;43.23;29.73;;;;;;;11.14;56.21;96750.56;5093115;28;20502;-66
2021/11/12 12:00:22;;;;;;;45.50;29.60;;;;;;;11.14;55.37;96750.56;5091711;28;20778;-68
2021/11/12 12:02:49;;;;;;;46.57;30.73;;;;;;;11.37;55.12;96745.44;5092617;28;20477;-67
2021/11/12 12:05:15;;;;;;;58.07;32.03;;;;;;;11.69;54.54;96742.88;5071048;28;20515;-66
2021/11/12 12:07:52;;;;;;;49.70;28.63;;;;;;;12.22;54.02;96726.53;5086712;28;20463;-65
2021/11/12 12:10:21;;;;;;;43.93;30.53;;;;;;;12.04;53.91;96719.75;5076968;28;20201;-69
2021/11/12 12:12:54;;;;;;;39.83;28.80;;;;;;;12.35;53.10;96721.50;5091950;28;20431;-66
2021/11/12 12:15:20;;;;;;;37.93;28.93;;;;;;;12.46;52.87;96712.41;5074966;28;20449;-66
2021/11/12 12:17:48;;;;;;;37.37;27.90;;;;;;;12.86;51.70;96709.59;5078037;28;20453;-67
2021/11/12 12:34:21;;;;;;;37.57;26.37;;;;;;;13.29;50.39;96682.69;5092967;28;20487;-66
2021/11/12 13:25:55;;;;;;;35.67;27.10;;;;;;;17.97;37.10;96636.34;5075021;28;20434;-67
2021/11/12 13:28:35;;;;;;;35.83;27.00;;;;;;;17.95;37.29;96627.81;5059212;28;20573;-68
2021/11/12 13:31:05;;;;;;;38.10;27.60;;;;;;;17.50;37.70;96632.09;5083064;28;20523;-67
2021/11/12 13:33:31;;;;;;;39.50;28.83;;;;;;;16.59;38.99;96637.16;5091791;28;20868;-66
2021/11/12 13:35:59;;;;;;;35.17;27.70;;;;;;;15.68;40.70;96630.53;5089873;28;20477;-68
2021/11/12 13:38:42;;;;;;;40.60;30.17;;;;;;;15.84;41.47;96644.38;5085705;28;20428;-68
2021/11/12 13:41:10;;;;;;;47.27;30.00;;;;;;;14.39;43.96;96643.16;5090772;28;20447;-68
2021/11/12 13:43:38;;;;;;;41.63;29.43;;;;;;;12.58;48.61;96641.84;5090220;28;20459;-67
2021/11/12 13:46:04;;;;;;;41.73;30.00;;;;;;;12.28;49.31;96641.75;5090592;28;20420;-68
2021/11/12 13:48:44;;;;;;;45.40;31.43;;;;;;;12.10;49.33;96640.25;5077753;28;20516;-67
2021/11/12 13:51:10;;;;;;;52.73;32.80;;;;;;;11.29;52.17;96644.97;5082627;28;20463;-67
2021/11/12 13:53:35;;;;;;;45.23;31.97;;;;;;;11.37;52.20;96637.88;5091454;28;20992;-67
2021/11/12 13:56:02;;;;;;;42.87;30.10;;;;;;;10.93;54.19;96637.56;5091443;28;20497;-66
2021/11/12 13:58:28;;;;;;;43.83;31.00;;;;;;;11.18;52.98;96638.25;5074367;28;20185;-66
2021/11/12 14:00:55;;;;;;;48.53;31.60;;;;;;;10.81;54.50;96631.84;5082476;28;20448;-67
2021/11/12 14:03:39;;;;;;;50.20;33.53;;;;;;;10.89;53.84;96632.63;5089879;28;20209;-66
2021/11/12 14:06:10;;;;;;;51.40;35.67;;;;;;;9.72;57.55;96645.06;5088684;28;20518;-66
2021/11/12 14:08:47;;;;;;;53.23;34.80;;;;;;;10.18;56.35;96644.63;5090291;28;20431;-68
2021/11/12 14:11:24;;;;;;;52.23;34.83;;;;;;;9.80;57.78;96647.72;5091312;28;20528;-67
2021/11/12 14:13:52;;;;;;;61.50;34.90;;;;;;;9.87;57.41;96643.47;5094269;28;20510;-68
2021/11/12 14:16:28;;;;;;;59.93;36.93;;;;;;;9.85;57.40;96645.44;5094780;28;20427;-67
2021/11/12 14:19:35;;;;;;;59.13;36.60;;;;;;;9.88;57.68;96644.31;5078377;28;20794;-65
2021/11/12 14:27:26;;;;;;;55.73;35.63;;;;;;;9.51;59.33;96656.81;5090906;28;20427;-66
2021/11/12 14:35:19;;;;;;;61.47;38.00;;;;;;;9.21;60.64;96669.44;5089922;28;20883;-66
2021/11/12 14:40:45;;;;;;;62.73;38.87;;;;;;;8.88;62.87;96664.84;5089442;28;20969;-66
2021/11/12 14:51:31;;;;;;;56.60;35.43;;;;;;;7.12;69.80;96669.59;5093807;28;20443;-66
2021/11/12 14:54:05;;;;;;;58.73;35.70;;;;;;;7.19;69.46;96669.84;5085432;28;20867;-67
2021/11/12 14:56:31;;;;;;;59.63;36.60;;;;;;;7.15;69.07;96671.94;5094770;28;20507;-67
2021/11/12 14:59:03;;;;;;;59.23;37.13;;;;;;;6.99;69.72;96682.13;5092983;28;20934;-65
2021/11/12 15:01:31;;;;;;;59.43;34.43;;;;;;;7.14;69.39;96685.94;5093411;28;20443;-65
2021/11/12 15:03:57;;;;;;;60.50;34.30;;;;;;;7.03;70.35;96680.91;5091186;28;20759;-66
2021/11/12 15:06:26;;;;;;;59.60;36.10;;;;;;;7.00;69.72;96679.38;5094775;28;20438;-64
2021/11/12 15:09:07;;;;;;;56.23;33.47;;;;;;;6.76;70.34;96678.09;5094130;28;20252;-66
2021/11/12 15:11:33;;;;;;;60.80;33.37;;;;;;;6.75;70.74;96683.44;5093291;28;20969;-66
2021/11/12 15:14:25;;;;;;;51.27;31.77;;;;;;;6.25;71.46;96687.91;5093977;28;20439;-68
2021/11/12 15:16:47;;;;;;;60.90;33.23;;;;;;;6.17;71.89;96687.78;5093563;28;20875;-67
2021/11/12 15:19:15;;;;;;;53.30;30.70;;;;;;;6.27;71.55;96688.59;5079653;28;20447;-67
2021/11/12 15:21:55;;;;;;;56.77;30.03;;;;;;;5.91;73.18;96685.69;5080045;28;20207;-65
2021/11/12 15:27:28;;;;;;;63.33;30.37;;;;;;;5.80;72.77;96677.97;5094674;28;20419;-67
2021/11/12 15:29:58;;;;;;;91.20;31.53;;;;;;;5.72;73.18;96683.88;5084770;28;20431;-67
2021/11/12 15:34:53;;;;;;;65.10;30.13;;;;;;;5.93;73.24;96686.34;5093639;28;20459;-65
2021/11/12 15:47:53;;;;;;;62.57;30.37;;;;;;;5.79;72.45;96690.16;5070564;28;20540;-66
2021/11/12 15:53:23;;;;;;;55.13;32.20;;;;;;;5.95;72.10;96686.22;5092689;28;20550;-67
2021/11/12 16:27:29;;;;;;;48.80;30.67;;;;;;;6.41;69.16;96720.38;5076178;28;20423;-66
2021/11/12 16:29:58;;;;;;;47.33;29.23;;;;;;;6.60;69.35;96720.34;5079319;28;20505;-66
2021/11/12 16:35:01;;;;;;;50.37;29.77;;;;;;;6.60;69.05;96709.91;5090240;28;20439;-65
2021/11/12 16:37:28;;;;;;;44.50;27.87;;;;;;;6.67;68.84;96704.97;5092551;28;20431;-67
2021/11/12 16:55:18;;;;;;;290.77;34.07;;;;;;;6.67;68.20;96701.56;5068093;28;20916;-68
2021/11/12 17:03:01;;;;;;;135.23;29.87;;;;;;;6.78;68.19;96710.97;5081655;28;20456;-66
2021/11/12 17:05:45;;;;;;;293.63;31.47;;;;;;;6.51;68.00;96700.34;5071743;28;20188;-66
2021/11/12 17:13:36;;;;;;;347.87;32.67;;;;;;;6.41;69.77;96709.97;5081638;28;20417;-66
2021/11/12 17:51:33;;;;;;;101.07;28.40;;;;;;;6.63;68.35;96692.38;5076873;28;20531;-66
2021/11/12 18:02:07;;;;;;;93.50;29.17;;;;;;;6.39;68.47;96719.69;5091815;28;20609;-66
2021/11/12 18:15:06;;;;;;;58.10;28.13;;;;;;;6.45;68.65;96719.13;5083066;28;20959;-66
2021/11/12 21:48:48;;;;;;;35.70;24.10;;;;;;;4.80;66.99;96612.91;5070964;28;20512;-64